Time;durP1;ratioP1;P1;durP2;ratioP2;P2;SDS_P1;SDS_P2;PMS_P1;PMS_P2;Temp;Humidity;BMP_temperature;BMP_pressure;BME280_temperature;BME280_humidity;BME280_pressure;Samples;Min_cycle;Max_cycle;Signal;HPM_P1;HPM_P2
2022/04/23 00:02:09;;;;;;;31.60;10.02;;;8.10;99.90;;;;;;6160483;23;20008;-92
2022/04/23 00:04:36;;;;;;;21.90;9.60;;;8.10;99.90;;;;;;6160617;23;20012;-90
2022/04/23 00:07:01;;;;;;;26.90;12.02;;;8.10;99.90;;;;;;6164382;23;20016;-91
2022/04/23 00:09:27;;;;;;;23.45;11.18;;;8.10;99.90;;;;;;6164548;23;20200;-90
2022/04/23 00:11:55;;;;;;;25.15;10.77;;;8.10;99.90;;;;;;6160596;23;20005;-92
2022/04/23 00:14:24;;;;;;;26.15;9.55;;;8.10;99.90;;;;;;6160423;23;20414;-91
2022/04/23 00:16:51;;;;;;;24.15;10.25;;;8.10;99.90;;;;;;6159994;23;20021;-91
2022/04/23 00:19:20;;;;;;;29.17;11.57;;;8.10;99.90;;;;;;6159487;23;20013;-91
2022/04/23 00:21:46;;;;;;;26.55;11.32;;;8.10;99.90;;;;;;6160473;23;20013;-90
2022/04/23 00:24:12;;;;;;;21.17;10.18;;;8.10;99.90;;;;;;6160052;23;20005;-91
2022/04/23 00:26:39;;;;;;;21.20;9.65;;;8.00;99.90;;;;;;6159770;23;20127;-92
2022/04/23 00:29:05;;;;;;;29.67;9.85;;;8.00;99.90;;;;;;6160643;23;20008;-92
2022/04/23 00:31:31;;;;;;;32.38;12.23;;;8.10;99.90;;;;;;6160462;23;20040;-92
2022/04/23 00:33:57;;;;;;;21.33;8.85;;;8.10;99.90;;;;;;6162319;23;20009;-91
2022/04/23 00:36:23;;;;;;;27.42;10.70;;;8.10;99.90;;;;;;6168542;23;20020;-92
2022/04/23 00:38:52;;;;;;;22.95;9.60;;;8.10;99.90;;;;;;6173263;23;20001;-91
2022/04/23 00:44:05;;;;;;;24.67;9.82;;;8.10;99.90;;;;;;6202980;23;20491;-91
2022/04/23 00:46:31;;;;;;;23.42;9.95;;;8.10;99.90;;;;;;6175498;23;20056;-92
2022/04/23 00:48:58;;;;;;;29.02;10.50;;;8.10;99.90;;;;;;6166472;23;20009;-90
2022/04/23 00:51:27;;;;;;;30.65;11.25;;;8.10;99.90;;;;;;6167786;23;20013;-91
2022/04/23 00:53:54;;;;;;;24.35;10.82;;;8.10;99.90;;;;;;6166863;23;20017;-90
2022/04/23 00:56:20;;;;;;;24.00;10.52;;;8.10;99.90;;;;;;6168517;23;20037;-92
2022/04/23 00:58:46;;;;;;;19.92;9.95;;;8.10;99.90;;;;;;6169031;23;20005;-91
2022/04/23 01:01:12;;;;;;;35.88;10.93;;;8.20;99.90;;;;;;6181380;23;20012;-91
2022/04/23 01:03:39;;;;;;;28.58;9.30;;;8.20;99.90;;;;;;6162824;23;20031;-92
2022/04/23 01:06:06;;;;;;;27.85;10.38;;;8.20;99.90;;;;;;6160831;23;20035;-90
2022/04/23 01:08:33;;;;;;;24.23;11.00;;;8.20;99.90;;;;;;6159947;23;20007;-90
2022/04/23 01:10:59;;;;;;;29.42;11.07;;;8.30;99.90;;;;;;6159668;23;20001;-90
2022/04/23 01:13:25;;;;;;;29.23;10.43;;;8.30;99.90;;;;;;6160068;23;20013;-91
2022/04/23 01:16:02;;;;;;;31.13;9.98;;;8.30;99.90;;;;;;6160043;23;20407;-92
2022/04/23 01:18:28;;;;;;;27.10;10.27;;;8.30;99.90;;;;;;6160299;23;20005;-91
2022/04/23 01:20:59;;;;;;;28.13;9.68;;;8.30;99.90;;;;;;6160687;23;20036;-91
2022/04/23 01:23:24;;;;;;;;;;;8.30;99.90;;;;;;6162135;23;20002;-91
2022/04/23 01:25:52;;;;;;;30.48;10.02;;;8.30;99.90;;;;;;6160608;23;19904;-91
2022/04/23 01:28:23;;;;;;;17.70;8.05;;;8.30;99.90;;;;;;6159743;23;20009;-91
2022/04/23 01:30:52;;;;;;;34.85;10.55;;;8.30;99.90;;;;;;6159987;23;20013;-92
2022/04/23 01:33:18;;;;;;;25.40;9.25;;;8.30;99.90;;;;;;6158698;23;20032;-90
2022/04/23 01:35:44;;;;;;;18.70;8.90;;;8.30;99.90;;;;;;6159291;23;20017;-92
2022/04/23 01:38:11;;;;;;;23.50;10.05;;;8.30;99.90;;;;;;6159091;23;20460;-91
2022/04/23 01:40:37;;;;;;;24.65;9.90;;;8.30;99.90;;;;;;6159013;23;20065;-90
2022/04/23 01:43:03;;;;;;;34.17;12.00;;;8.30;99.90;;;;;;6159409;23;20009;-90
2022/04/23 01:45:29;;;;;;;26.15;9.88;;;8.30;99.90;;;;;;6158739;23;20059;-91
2022/04/23 01:47:55;;;;;;;31.67;9.30;;;8.20;99.90;;;;;;6158757;23;20421;-90
2022/04/23 01:50:21;;;;;;;29.38;9.55;;;8.30;99.90;;;;;;6159033;23;20372;-91
2022/04/23 01:52:47;;;;;;;25.95;9.02;;;8.30;99.90;;;;;;6158994;23;20024;-91
2022/04/23 01:55:13;;;;;;;33.20;9.20;;;8.30;99.90;;;;;;6159432;23;20016;-92
2022/04/23 01:57:39;;;;;;;36.42;10.95;;;8.30;99.90;;;;;;6160288;23;20009;-90
2022/04/23 02:00:11;;;;;;;29.30;8.70;;;8.30;99.90;;;;;;6159442;23;20009;-91
2022/04/23 02:02:37;;;;;;;45.30;9.82;;;8.40;99.90;;;;;;6158748;23;20055;-91
2022/04/23 02:05:04;;;;;;;22.20;7.90;;;8.30;99.90;;;;;;6159078;23;20001;-91
2022/04/23 02:07:41;;;;;;;23.75;9.23;;;8.30;99.90;;;;;;6158732;23;20025;-92
2022/04/23 02:10:09;;;;;;;21.40;8.48;;;8.30;99.90;;;;;;6159187;23;20016;-90
2022/04/23 02:12:36;;;;;;;27.77;8.98;;;8.40;99.90;;;;;;6159610;23;20101;-91
2022/04/23 02:15:02;;;;;;;32.90;8.98;;;8.40;99.90;;;;;;6160424;23;20016;-91
2022/04/23 02:17:38;;;;;;;29.73;9.93;;;8.30;99.90;;;;;;6169182;23;20001;-91
2022/04/23 02:20:06;;;;;;;31.88;10.23;;;8.30;99.90;;;;;;6173134;23;20016;-91
2022/04/23 02:22:31;;;;;;;26.58;9.73;;;8.30;99.90;;;;;;6162326;23;20437;-91
2022/04/23 02:24:58;;;;;;;24.33;9.10;;;8.30;99.90;;;;;;6160431;23;19997;-90
2022/04/23 02:27:27;;;;;;;27.55;9.70;;;8.20;99.90;;;;;;6160901;23;20023;-89
2022/04/23 02:29:54;;;;;;;24.70;9.80;;;8.30;99.90;;;;;;6163731;23;20036;-90
2022/04/23 02:32:20;;;;;;;29.48;9.75;;;8.30;99.90;;;;;;6172385;23;20001;-91
2022/04/23 02:34:46;;;;;;;25.80;10.25;;;8.20;99.90;;;;;;6161207;23;20147;-90
2022/04/23 02:37:13;;;;;;;25.42;9.35;;;8.20;99.90;;;;;;6159759;23;20011;-90
2022/04/23 02:39:39;;;;;;;24.45;8.85;;;8.20;99.90;;;;;;6161390;23;20001;-91
2022/04/23 02:42:05;;;;;;;27.48;9.82;;;8.20;99.90;;;;;;6162028;23;20019;-90
2022/04/23 02:44:31;;;;;;;28.40;10.27;;;8.20;99.90;;;;;;6163079;23;20054;-91
2022/04/23 02:46:57;;;;;;;29.85;9.98;;;8.20;99.90;;;;;;6160557;23;20014;-91
2022/04/23 02:49:23;;;;;;;24.35;8.68;;;8.20;99.90;;;;;;6160941;23;20009;-91
2022/04/23 02:51:50;;;;;;;22.05;8.60;;;8.20;99.90;;;;;;6160251;23;20053;-90
2022/04/23 02:54:17;;;;;;;22.40;10.20;;;8.20;99.90;;;;;;6160986;23;20422;-91
2022/04/23 02:56:43;;;;;;;26.45;9.00;;;8.20;99.90;;;;;;6159822;23;20321;-90
2022/04/23 02:59:08;;;;;;;31.73;9.68;;;8.20;99.90;;;;;;6160570;23;20040;-91
2022/04/23 03:01:36;;;;;;;29.85;9.70;;;8.30;99.90;;;;;;6160857;23;20001;-90
2022/04/23 03:04:03;;;;;;;29.60;9.60;;;8.20;99.90;;;;;;6161073;23;20433;-89
2022/04/23 03:06:33;;;;;;;27.67;10.88;;;8.30;99.90;;;;;;6160051;23;20009;-90
2022/04/23 03:09:03;;;;;;;27.45;9.02;;;8.30;99.90;;;;;;6160745;23;20005;-89
2022/04/23 03:11:32;;;;;;;24.37;9.07;;;8.30;99.90;;;;;;6160795;23;20009;-91
2022/04/23 03:13:58;;;;;;;24.98;8.60;;;8.30;99.90;;;;;;6160961;23;20260;-92
2022/04/23 03:16:26;;;;;;;22.85;9.45;;;8.30;99.90;;;;;;6166631;23;20017;-90
2022/04/23 03:18:53;;;;;;;23.30;10.15;;;8.30;99.90;;;;;;6171469;23;20028;-91
2022/04/23 03:21:19;;;;;;;30.38;9.82;;;8.30;99.90;;;;;;6167913;23;20013;-90
2022/04/23 03:23:44;;;;;;;28.95;9.43;;;8.30;99.90;;;;;;6166164;23;20008;-90
2022/04/23 03:26:10;;;;;;;28.17;9.73;;;8.40;99.90;;;;;;6187391;23;20332;-90
2022/04/23 03:28:36;;;;;;;31.00;10.63;;;8.40;99.90;;;;;;6161193;23;19997;-91
2022/04/23 03:31:02;;;;;;;35.00;11.60;;;8.40;99.90;;;;;;6162097;23;20001;-91
2022/04/23 03:33:28;;;;;;;31.23;9.75;;;8.40;99.90;;;;;;6164466;23;20489;-92
2022/04/23 03:35:54;;;;;;;29.70;10.80;;;8.40;99.90;;;;;;6177948;23;20020;-91
2022/04/23 03:38:20;;;;;;;20.52;9.88;;;8.40;99.90;;;;;;6168006;23;20036;-91
2022/04/23 03:40:48;;;;;;;32.28;10.35;;;8.40;99.90;;;;;;6162370;23;20008;-90
2022/04/23 03:43:15;;;;;;;26.13;8.98;;;8.50;99.90;;;;;;6162166;23;20037;-92
2022/04/23 03:45:41;;;;;;;20.25;8.18;;;8.40;99.90;;;;;;6161487;23;20060;-91
2022/04/23 03:48:06;;;;;;;27.35;10.23;;;8.40;99.90;;;;;;6161537;23;20092;-90
2022/04/23 03:50:33;;;;;;;30.98;9.68;;;8.50;99.90;;;;;;6161295;23;20123;-90
2022/04/23 03:52:58;;;;;;;24.23;8.35;;;8.50;99.90;;;;;;6155563;23;20025;-91
2022/04/23 03:55:25;;;;;;;26.42;8.85;;;8.50;99.90;;;;;;6130639;23;20013;-91
2022/04/23 03:57:54;;;;;;;32.58;9.18;;;8.50;99.90;;;;;;6131602;23;20009;-92
2022/04/23 04:00:21;;;;;;;26.05;8.95;;;8.50;99.90;;;;;;6134844;23;20002;-92
2022/04/23 04:02:47;;;;;;;28.38;8.10;;;8.50;99.90;;;;;;6161486;23;20005;-91
2022/04/23 04:05:13;;;;;;;24.15;7.72;;;8.50;99.90;;;;;;6130947;23;20001;-91
2022/04/23 04:07:44;;;;;;;32.17;10.23;;;8.50;99.90;;;;;;6131754;23;20013;-92
2022/04/23 04:10:10;;;;;;;;;;;8.50;99.90;;;;;;6131301;23;20056;-92
2022/04/23 04:12:37;;;;;;;22.13;7.43;;;8.50;99.90;;;;;;6156197;23;20443;-92
2022/04/23 04:15:05;;;;;;;27.40;8.98;;;8.50;99.90;;;;;;6148053;23;20029;-92
2022/04/23 04:17:30;;;;;;;25.92;8.90;;;8.60;99.90;;;;;;6148999;23;20013;-91
2022/04/23 04:19:56;;;;;;;27.77;9.40;;;8.60;99.90;;;;;;6132744;23;20010;-91
2022/04/23 04:22:25;;;;;;;28.58;9.32;;;8.60;99.90;;;;;;6130951;23;20009;-93
2022/04/23 04:24:51;;;;;;;20.63;7.65;;;8.60;99.90;;;;;;6130894;23;20002;-92
2022/04/23 04:27:17;;;;;;;23.67;7.18;;;8.60;99.90;;;;;;6130512;23;20012;-90
2022/04/23 04:29:43;;;;;;;25.05;8.07;;;8.60;99.90;;;;;;6130567;23;20490;-92
2022/04/23 04:32:09;;;;;;;29.50;8.23;;;8.60;99.90;;;;;;6130647;23;20060;-92
2022/04/23 04:34:35;;;;;;;31.80;8.07;;;8.60;99.90;;;;;;6130384;23;20009;-91
2022/04/23 04:37:09;;;;;;;25.63;7.13;;;8.60;99.90;;;;;;6130374;23;20171;-91
2022/04/23 04:39:41;;;;;;;22.08;7.38;;;8.60;99.90;;;;;;6129902;23;20096;-94
2022/04/23 04:42:07;;;;;;;28.02;8.05;;;8.60;99.90;;;;;;6130721;23;20073;-91
2022/04/23 04:44:34;;;;;;;25.52;9.25;;;8.60;99.90;;;;;;6130522;23;20005;-92
2022/04/23 04:47:00;;;;;;;27.58;8.07;;;8.60;99.90;;;;;;6130773;23;20480;-93
2022/04/23 04:49:25;;;;;;;17.52;6.60;;;8.60;99.90;;;;;;6131310;23;20009;-91
2022/04/23 04:51:52;;;;;;;24.52;7.32;;;8.60;99.90;;;;;;6147474;23;20088;-91
2022/04/23 04:54:21;;;;;;;25.63;7.93;;;8.60;99.90;;;;;;6179781;23;20108;-92
2022/04/23 04:56:59;;;;;;;30.05;8.63;;;8.60;99.90;;;;;;6161762;23;20027;-91
2022/04/23 04:59:25;;;;;;;20.27;7.20;;;8.50;99.90;;;;;;6161641;23;20009;-92
2022/04/23 05:01:52;;;;;;;27.98;8.00;;;8.50;99.90;;;;;;6187215;23;20035;-92
2022/04/23 05:04:18;;;;;;;26.92;8.52;;;8.50;99.90;;;;;;6159572;23;20357;-91
2022/04/23 05:06:44;;;;;;;31.88;8.98;;;8.50;99.90;;;;;;6160146;23;20095;-90
2022/04/23 05:09:10;;;;;;;20.70;7.93;;;8.50;99.90;;;;;;6159685;23;20455;-89
2022/04/23 05:11:39;;;;;;;23.45;8.38;;;8.50;99.90;;;;;;6159570;23;20140;-89
2022/04/23 05:14:04;;;;;;;22.25;7.70;;;8.50;99.90;;;;;;6159900;23;20028;-93
2022/04/23 05:16:30;;;;;;;28.58;8.48;;;8.50;99.90;;;;;;6159276;23;20075;-91
2022/04/23 05:18:56;;;;;;;29.75;7.65;;;8.50;99.90;;;;;;6159756;23;20016;-91
2022/04/23 05:21:22;;;;;;;23.30;8.30;;;8.50;99.90;;;;;;6159586;23;20104;-90
2022/04/23 05:23:48;;;;;;;34.83;8.80;;;8.50;99.90;;;;;;6159607;23;20028;-91
2022/04/23 05:26:14;;;;;;;26.65;8.90;;;8.50;99.90;;;;;;6159504;23;20204;-92
2022/04/23 05:28:41;;;;;;;26.05;8.18;;;8.50;99.90;;;;;;6159901;23;20087;-93
2022/04/23 05:31:07;;;;;;;26.80;7.97;;;8.50;99.90;;;;;;6158809;23;20119;-92
2022/04/23 05:33:33;;;;;;;21.35;8.13;;;8.50;99.90;;;;;;6159697;23;20056;-92
2022/04/23 05:36:00;;;;;;;26.80;8.60;;;8.60;99.90;;;;;;6159355;23;20005;-92
2022/04/23 05:38:25;;;;;;;31.48;8.52;;;8.50;99.90;;;;;;6158942;23;20009;-92
2022/04/23 05:40:51;;;;;;;22.33;8.55;;;8.50;99.90;;;;;;6159000;23;20031;-92
2022/04/23 05:43:17;;;;;;;27.45;7.22;;;8.60;99.90;;;;;;6160308;23;20013;-91
2022/04/23 05:45:43;;;;;;;20.67;7.63;;;8.60;99.90;;;;;;6159587;23;20002;-92
2022/04/23 05:48:10;;;;;;;19.50;8.05;;;8.60;99.90;;;;;;6158996;23;20044;-91
2022/04/23 05:50:36;;;;;;;31.08;10.02;;;8.60;99.90;;;;;;6159212;23;20120;-91
2022/04/23 05:53:02;;;;;;;26.40;8.45;;;8.60;99.90;;;;;;6159474;23;20437;-91
2022/04/23 05:55:27;;;;;;;31.85;8.40;;;8.60;99.90;;;;;;6159554;23;20433;-90
2022/04/23 05:57:53;;;;;;;26.35;8.30;;;8.70;99.90;;;;;;6162616;23;20066;-90
2022/04/23 06:00:19;;;;;;;30.27;7.88;;;8.70;99.90;;;;;;6169908;23;20317;-90
2022/04/23 06:02:45;;;;;;;28.15;8.80;;;8.70;99.90;;;;;;6172399;23;20003;-91
2022/04/23 06:05:11;;;;;;;30.67;9.38;;;8.70;99.90;;;;;;6173478;23;20004;-91
2022/04/23 06:07:37;;;;;;;25.30;10.73;;;8.70;99.90;;;;;;6174283;23;20013;-90
2022/04/23 06:10:04;;;;;;;21.73;8.68;;;8.70;99.90;;;;;;6173911;23;20155;-90
2022/04/23 06:12:31;;;;;;;30.02;10.50;;;8.70;99.90;;;;;;6173121;23;20016;-90
2022/04/23 06:14:57;;;;;;;24.50;8.90;;;8.70;99.90;;;;;;6167282;23;20052;-90
2022/04/23 06:17:25;;;;;;;27.08;9.90;;;8.70;99.90;;;;;;6169602;23;20013;-90
2022/04/23 06:19:51;;;;;;;29.10;9.82;;;8.60;99.90;;;;;;6170766;23;20008;-90
2022/04/23 06:22:17;;;;;;;26.65;9.32;;;8.70;99.90;;;;;;6169195;23;20103;-90
2022/04/23 06:24:42;;;;;;;25.25;8.85;;;8.60;99.90;;;;;;6167128;23;20063;-90
2022/04/23 06:27:08;;;;;;;28.75;8.85;;;8.70;99.90;;;;;;6162592;23;20008;-90
2022/04/23 06:29:36;;;;;;;23.98;8.77;;;8.70;99.90;;;;;;6162513;23;20063;-91
2022/04/23 06:32:02;;;;;;;27.17;10.10;;;8.70;99.90;;;;;;6161864;23;20009;-90
2022/04/23 06:34:28;;;;;;;27.48;9.48;;;8.70;99.90;;;;;;6162101;23;20005;-91
2022/04/23 06:36:53;;;;;;;33.15;9.70;;;8.70;99.90;;;;;;6161224;23;20043;-92
2022/04/23 06:39:19;;;;;;;32.50;9.90;;;8.70;99.90;;;;;;6161498;23;20008;-91
2022/04/23 06:41:45;;;;;;;33.80;9.32;;;8.70;99.90;;;;;;6160686;23;20014;-92
2022/04/23 06:44:10;;;;;;;27.63;9.02;;;8.80;99.90;;;;;;6161286;23;20063;-91
2022/04/23 06:46:36;;;;;;;29.15;9.20;;;8.70;99.90;;;;;;6185616;23;20088;-91
2022/04/23 06:49:05;;;;;;;25.25;8.65;;;8.70;99.90;;;;;;6161489;23;20009;-91
2022/04/23 06:51:32;;;;;;;23.75;9.50;;;8.70;99.90;;;;;;6161105;23;20005;-92
2022/04/23 06:53:58;;;;;;;26.67;9.23;;;8.70;99.90;;;;;;6161147;23;20460;-91
2022/04/23 06:56:24;;;;;;;28.15;10.32;;;8.80;99.90;;;;;;6161137;23;20017;-90
2022/04/23 06:58:50;;;;;;;23.88;9.45;;;8.80;99.90;;;;;;6160433;23;20011;-91
2022/04/23 07:01:19;;;;;;;31.33;9.43;;;8.80;99.90;;;;;;6160568;23;20009;-92
2022/04/23 07:03:45;;;;;;;32.63;9.80;;;8.80;99.90;;;;;;6159755;23;20147;-92
2022/04/23 07:06:11;;;;;;;23.15;9.88;;;8.80;99.90;;;;;;6160773;23;20156;-91
2022/04/23 07:08:40;;;;;;;24.25;9.32;;;8.80;99.90;;;;;;6162805;23;20009;-91
2022/04/23 07:11:06;;;;;;;28.08;8.63;;;8.80;99.90;;;;;;6158671;23;20067;-94
2022/04/23 07:13:32;;;;;;;21.38;8.20;;;8.90;99.90;;;;;;6160412;23;20009;-92
2022/04/23 07:15:58;;;;;;;28.85;10.23;;;8.90;99.90;;;;;;6160584;23;20021;-92
2022/04/23 07:18:24;;;;;;;23.38;9.32;;;8.90;99.90;;;;;;6160748;23;20437;-92
2022/04/23 07:20:50;;;;;;;31.98;9.45;;;8.90;99.90;;;;;;6161237;23;20101;-92
2022/04/23 07:26:00;;;;;;;27.80;8.27;;;9.00;99.90;;;;;;6189813;23;20191;-91
2022/04/23 07:28:26;;;;;;;23.98;9.43;;;9.00;99.90;;;;;;6170595;23;20000;-91
2022/04/23 07:30:51;;;;;;;30.50;9.60;;;9.00;99.90;;;;;;6164037;23;20029;-90
2022/04/23 07:38:45;;;;;;;23.75;8.77;;;9.00;99.90;;;;;;6187496;23;20083;-91
2022/04/23 07:41:11;;;;;;;33.00;10.05;;;9.00;99.90;;;;;;6160284;23;20444;-92
2022/04/23 07:43:37;;;;;;;35.55;10.55;;;9.00;99.90;;;;;;6161915;23;20087;-92
2022/04/23 07:46:03;;;;;;;24.50;9.52;;;9.10;99.90;;;;;;6168102;23;20025;-91
2022/04/23 07:48:29;;;;;;;24.95;9.25;;;9.10;99.90;;;;;;6180759;23;20005;-92
2022/04/23 07:50:54;;;;;;;23.10;8.27;;;9.10;99.90;;;;;;6162738;23;20161;-93
2022/04/23 07:53:20;;;;;;;23.25;8.60;;;9.10;99.90;;;;;;6160775;23;20017;-90
2022/04/23 07:55:46;;;;;;;28.05;9.40;;;9.10;99.90;;;;;;6161449;23;20107;-90
2022/04/23 07:58:11;;;;;;;23.52;8.88;;;9.10;99.90;;;;;;6161348;23;20012;-90
2022/04/23 08:00:44;;;;;;;24.45;9.35;;;9.20;99.90;;;;;;6161384;23;20009;-90
2022/04/23 08:03:10;;;;;;;33.85;13.10;;;9.20;99.90;;;;;;6161345;23;20005;-91
2022/04/23 08:05:36;;;;;;;30.50;8.70;;;9.20;99.90;;;;;;6158522;23;20013;-89
2022/04/23 08:08:02;;;;;;;28.50;9.20;;;9.20;99.90;;;;;;6160295;23;20512;-90
2022/04/23 08:10:28;;;;;;;31.10;8.40;;;9.20;99.90;;;;;;6160210;23;20433;-90
2022/04/23 08:12:55;;;;;;;19.20;7.93;;;9.30;99.90;;;;;;6160477;23;20009;-90
2022/04/23 08:15:21;;;;;;;29.08;7.70;;;9.30;99.90;;;;;;6160334;23;20215;-91
2022/04/23 08:17:47;;;;;;;22.65;9.15;;;9.30;99.90;;;;;;6160007;23;20072;-89
2022/04/23 08:20:14;;;;;;;29.23;8.25;;;9.40;99.90;;;;;;6159995;23;20028;-90
2022/04/23 08:22:39;;;;;;;25.70;8.80;;;9.40;99.90;;;;;;6159591;23;20332;-89
2022/04/23 08:25:06;;;;;;;31.00;9.82;;;9.40;99.90;;;;;;6185842;23;20072;-91
2022/04/23 08:30:34;;;;;;;29.33;9.52;;;9.50;99.90;;;;;;6161203;23;20013;-92
2022/04/23 08:30:41;;;;;;;35.30;9.27;;;9.50;99.90;;;;;;6185772;23;20008;-91
2022/04/23 08:33:08;;;;;;;21.42;8.95;;;9.50;99.90;;;;;;6159752;23;20013;-91
2022/04/23 08:35:36;;;;;;;25.73;8.88;;;9.50;99.90;;;;;;6161351;23;20008;-90
2022/04/23 08:38:03;;;;;;;27.60;7.97;;;9.60;99.90;;;;;;6161502;23;20005;-92
2022/04/23 08:40:56;;;;;;;28.00;8.88;;;9.60;99.90;;;;;;6160774;23;20112;-90
2022/04/23 08:43:21;;;;;;;25.60;8.82;;;9.60;99.90;;;;;;6189103;23;20012;-91
2022/04/23 08:45:47;;;;;;;28.23;9.55;;;9.70;99.90;;;;;;6180642;23;20087;-90
2022/04/23 08:48:17;;;;;;;22.00;8.32;;;9.70;99.90;;;;;;6203785;23;20059;-89
2022/04/23 08:50:45;;;;;;;23.88;8.60;;;9.80;99.90;;;;;;6175366;23;20100;-91
2022/04/23 08:53:18;;;;;;;25.38;9.20;;;9.90;99.90;;;;;;6169343;23;20016;-93
2022/04/23 08:55:46;;;;;;;27.83;9.10;;;10.10;99.90;;;;;;6164682;23;20083;-90
2022/04/23 08:58:13;;;;;;;21.23;8.70;;;10.20;99.90;;;;;;6163837;23;20062;-91
2022/04/23 09:00:39;;;;;;;29.30;9.25;;;10.30;99.90;;;;;;6162459;23;20448;-91
2022/04/23 09:03:12;;;;;;;22.77;8.60;;;10.40;99.90;;;;;;6161207;23;20142;-90
2022/04/23 09:05:38;;;;;;;25.17;8.23;;;10.50;99.90;;;;;;6160722;23;20020;-90
2022/04/23 09:08:07;;;;;;;30.35;9.48;;;10.60;99.90;;;;;;6160739;23;20257;-91
2022/04/23 09:10:48;;;;;;;18.75;8.60;;;10.70;99.90;;;;;;6159876;23;20005;-91
2022/04/23 09:13:26;;;;;;;;;;;10.90;99.90;;;;;;6160610;23;20004;-91
2022/04/23 09:24:23;;;;;;;29.30;8.77;;;11.20;99.90;;;;;;6186079;23;20101;-90
2022/04/23 09:27:03;;;;;;;30.65;9.02;;;11.30;99.90;;;;;;6160015;23;20084;-90
2022/04/23 09:29:30;;;;;;;23.50;9.00;;;11.30;99.90;;;;;;6159857;23;20452;-90
2022/04/23 09:32:14;;;;;;;24.65;8.20;;;11.30;99.90;;;;;;6165822;23;20005;-90
2022/04/23 09:34:41;;;;;;;30.13;8.88;;;11.40;99.90;;;;;;6166573;23;20083;-91
2022/04/23 09:37:08;;;;;;;26.05;9.93;;;11.40;99.90;;;;;;6159864;23;20069;-92
2022/04/23 09:39:35;;;;;;;25.27;8.95;;;11.50;99.90;;;;;;6159076;23;20017;-91
2022/04/23 09:42:18;;;;;;;28.75;9.38;;;11.70;99.90;;;;;;6169089;23;20012;-94
2022/04/23 09:44:47;;;;;;;33.88;9.57;;;11.80;99.90;;;;;;6164822;23;20490;-94
2022/04/23 09:47:32;;;;;;;28.25;9.57;;;11.90;99.90;;;;;;6159223;23;20378;-93
2022/04/23 09:50:01;;;;;;;29.33;9.52;;;11.90;99.90;;;;;;6159402;23;20332;-93
2022/04/23 09:52:30;;;;;;;31.23;10.98;;;12.00;99.90;;;;;;6160740;23;20017;-93
2022/04/23 09:54:57;;;;;;;32.53;9.55;;;12.00;99.90;;;;;;6161185;23;20009;-92
2022/04/23 09:57:23;;;;;;;26.13;9.90;;;12.00;99.90;;;;;;6161932;23;20005;-91
2022/04/23 09:59:52;;;;;;;28.23;10.15;;;12.00;99.90;;;;;;6162545;23;20027;-92
2022/04/23 10:02:21;;;;;;;29.85;11.07;;;12.00;99.90;;;;;;6162178;23;20013;-92
2022/04/23 10:04:47;;;;;;;30.30;9.75;;;12.00;99.90;;;;;;6166922;23;20016;-90
2022/04/23 10:07:17;;;;;;;31.63;11.30;;;12.00;99.90;;;;;;6181839;23;20001;-92
2022/04/23 10:09:46;;;;;;;25.60;9.75;;;11.90;99.90;;;;;;6166670;23;20013;-92
2022/04/23 10:12:19;;;;;;;32.72;11.18;;;12.00;99.90;;;;;;6163385;23;20005;-93
2022/04/23 10:14:56;;;;;;;29.73;11.25;;;12.00;99.90;;;;;;6162835;23;20001;-91
2022/04/23 10:17:24;;;;;;;23.48;11.15;;;12.10;99.90;;;;;;6163343;23;20009;-92
2022/04/23 10:19:51;;;;;;;40.58;12.05;;;12.20;99.90;;;;;;6162497;23;20005;-91
2022/04/23 10:22:29;;;;;;;28.40;11.95;;;12.20;99.90;;;;;;6162745;23;20012;-93
2022/04/23 10:25:07;;;;;;;26.17;10.98;;;12.20;99.90;;;;;;6163422;23;20009;-91
2022/04/23 10:27:37;;;;;;;34.20;11.88;;;12.20;99.90;;;;;;6162262;23;20062;-92
2022/04/23 10:30:06;;;;;;;32.08;12.77;;;12.30;99.90;;;;;;6162349;23;20008;-91
2022/04/23 10:32:43;;;;;;;27.77;12.25;;;12.30;99.90;;;;;;6163028;23;20005;-92
2022/04/23 10:35:17;;;;;;;32.33;12.38;;;12.30;99.90;;;;;;6162244;23;20012;-91
2022/04/23 10:37:48;;;;;;;26.95;13.75;;;12.40;99.90;;;;;;6161888;23;20020;-91
2022/04/23 10:40:18;;;;;;;34.33;13.77;;;12.40;99.90;;;;;;6160830;23;20084;-92
2022/04/23 10:43:07;;;;;;;26.40;12.20;;;12.40;99.90;;;;;;6160983;23;20111;-92
2022/04/23 10:45:34;;;;;;;32.75;13.77;;;12.40;99.90;;;;;;6161049;23;20005;-91
2022/04/23 10:48:30;;;;;;;34.33;14.02;;;12.40;99.90;;;;;;6161602;23;20009;-94
2022/04/23 10:51:01;;;;;;;33.80;12.63;;;12.40;99.90;;;;;;6161369;23;20459;-93
2022/04/23 10:53:29;;;;;;;39.38;14.35;;;12.40;99.90;;;;;;6160909;23;20414;-92
2022/04/23 10:56:16;;;;;;;42.67;15.73;;;12.40;99.90;;;;;;6161917;23;20016;-91
2022/04/23 10:58:42;;;;;;;36.17;13.38;;;12.40;99.90;;;;;;6162524;23;20394;-92
2022/04/23 11:01:31;;;;;;;41.00;16.50;;;12.40;99.90;;;;;;6160789;23;20432;-90
2022/04/23 11:04:06;;;;;;;44.60;17.05;;;12.40;99.90;;;;;;6162393;23;20016;-94
2022/04/23 11:12:32;;;;;;;34.38;12.77;;;12.40;99.90;;;;;;6190514;23;20020;-93
2022/04/23 11:14:58;;;;;;;27.75;13.48;;;12.40;99.90;;;;;;6164545;23;20024;-92
2022/04/23 11:17:38;;;;;;;34.67;13.32;;;12.40;99.90;;;;;;6174095;23;19992;-92
2022/04/23 11:20:05;;;;;;;32.35;13.05;;;12.30;99.90;;;;;;6167216;23;20337;-92
2022/04/23 11:22:32;;;;;;;25.17;12.70;;;12.30;99.90;;;;;;6163316;23;20015;-94
2022/04/23 11:24:59;;;;;;;29.63;12.52;;;12.40;99.90;;;;;;6175320;23;20008;-95
2022/04/23 11:27:29;;;;;;;27.60;14.10;;;12.40;99.90;;;;;;6169617;23;20101;-91
2022/04/23 11:29:55;;;;;;;32.78;13.75;;;12.50;99.90;;;;;;6169741;23;20032;-92
2022/04/23 11:32:25;;;;;;;28.00;13.30;;;12.60;99.90;;;;;;6170702;23;20005;-90
2022/04/23 11:34:58;;;;;;;29.15;13.50;;;12.70;99.90;;;;;;6170299;23;19997;-93
2022/04/23 11:37:34;;;;;;;28.98;13.52;;;12.70;99.90;;;;;;6167432;23;20013;-92
2022/04/23 11:40:13;;;;;;;30.42;12.55;;;12.80;99.90;;;;;;6165326;23;20008;-93
2022/04/23 11:42:43;;;;;;;28.67;13.38;;;12.80;99.90;;;;;;6166847;23;20017;-92
2022/04/23 11:45:10;;;;;;;27.95;12.35;;;12.80;99.90;;;;;;6166759;23;20040;-92
2022/04/23 11:47:37;;;;;;;26.92;10.32;;;12.80;99.90;;;;;;6163805;23;20033;-93
2022/04/23 11:50:21;;;;;;;24.27;11.95;;;12.90;99.90;;;;;;6163720;23;20059;-94
2022/04/23 11:52:59;;;;;;;32.42;11.90;;;12.90;99.90;;;;;;6162374;23;20029;-94
2022/04/23 11:55:26;;;;;;;20.23;10.63;;;12.90;99.90;;;;;;6164332;23;20088;-94
2022/04/23 11:57:56;;;;;;;29.92;10.93;;;13.00;99.90;;;;;;6165384;23;20017;-93
2022/04/23 12:00:24;;;;;;;24.95;12.07;;;13.10;99.90;;;;;;6164053;23;20001;-93
2022/04/23 12:02:51;;;;;;;17.65;10.27;;;13.20;99.90;;;;;;6163449;23;20013;-94
2022/04/23 12:05:30;;;;;;;27.73;11.45;;;13.30;99.90;;;;;;6163909;23;20001;-93
2022/04/23 12:07:57;;;;;;;21.42;10.10;;;13.50;99.90;;;;;;6165674;23;20032;-94
2022/04/23 12:10:33;;;;;;;24.00;11.00;;;13.60;99.90;;;;;;6167487;23;20029;-92
2022/04/23 12:13:08;;;;;;;24.80;10.60;;;13.80;99.90;;;;;;6164314;23;20012;-94
2022/04/23 12:15:44;;;;;;;26.13;11.20;;;13.80;99.90;;;;;;6164733;23;20009;-94
2022/04/23 12:18:19;;;;;;;19.73;9.52;;;13.90;99.90;;;;;;6170351;23;20032;-93
2022/04/23 12:20:45;;;;;;;26.88;10.07;;;14.00;99.90;;;;;;6171604;23;20001;-93
2022/04/23 12:23:11;;;;;;;26.83;10.50;;;14.00;99.90;;;;;;6172331;23;20015;-91
2022/04/23 12:25:37;;;;;;;30.25;10.98;;;14.10;99.90;;;;;;6170367;23;20459;-92
2022/04/23 12:42:10;;;;;;;20.85;8.73;;;15.10;99.90;;;;;;6193688;23;20063;-91
2022/04/23 12:44:43;;;;;;;19.48;7.65;;;15.20;99.90;;;;;;6170221;23;20019;-92
2022/04/23 12:47:35;;;;;;;19.65;7.90;;;15.50;99.90;;;;;;6161524;23;20044;-94
2022/04/23 12:50:05;;;;;;;18.35;7.85;;;15.90;98.50;;;;;;6172647;23;20013;-92
2022/04/23 12:52:37;;;;;;;19.70;8.20;;;16.10;96.20;;;;;;6161924;23;20031;-96
2022/04/23 12:55:25;;;;;;;22.15;8.73;;;16.30;94.00;;;;;;6161666;23;20001;-93
2022/04/23 12:57:51;;;;;;;18.63;6.75;;;16.40;92.70;;;;;;6163168;23;20012;-95
2022/04/23 13:00:25;;;;;;;13.75;7.85;;;16.60;92.00;;;;;;6162406;23;20012;-94
2022/04/23 13:02:57;;;;;;;20.65;7.45;;;16.70;90.00;;;;;;6163819;23;20015;-94
2022/04/23 13:05:23;;;;;;;12.35;5.72;;;16.70;86.10;;;;;;6176005;23;20009;-92
2022/04/23 13:10:35;;;;;;;13.60;5.70;;;17.20;84.20;;;;;;6194447;23;20487;-93
2022/04/23 13:13:01;;;;;;;11.80;5.47;;;17.60;82.00;;;;;;6168206;23;20001;-93
2022/04/23 13:15:29;;;;;;;16.00;5.43;;;18.00;79.90;;;;;;6168833;23;20035;-94
2022/04/23 13:17:55;;;;;;;13.10;5.35;;;18.20;77.60;;;;;;6168927;23;20079;-92
2022/04/23 13:20:21;;;;;;;9.45;5.55;;;18.20;76.30;;;;;;6165766;23;20008;-94
2022/04/23 13:22:55;;;;;;;8.18;4.72;;;18.20;74.30;;;;;;6167953;23;20508;-94
2022/04/23 13:25:21;;;;;;;12.50;5.47;;;18.20;70.00;;;;;;6192548;23;20016;-95
2022/04/23 13:27:47;;;;;;;11.38;4.97;;;18.20;68.70;;;;;;6163422;23;20013;-95
2022/04/23 13:30:14;;;;;;;9.80;4.78;;;18.30;67.90;;;;;;6163803;23;20020;-94